Details From EGCC - Manchester
To EGPF - Glasgow
Flight Number -
Tags Decoded
Created
Modified
Stats Distance 179 nm / 331 km
Max Altitude 0 ft / 0 m
Waypoints 4
Social Downloads 31
Likes 0
Share VATSIM

Download

Looking for another format? Having issues loading an existing format? Contact us
Advertisement - Login to hide

Notes

Decoded

Route

EGCC POL MARGO EGPF

ID Type Via Altitude Latitude Longitude Leg Dist Tot Dist Heading (true) Name
O EGCC APT - 0 ft / 0 m 53.33197˚ -2.31066˚ - 0 nm - -
POL VOR - 0 ft / 0 m 53.74389˚ -2.10333˚ 25 nm 25 nm 17° / 17° POLE HILL VOR-DME
MARGO FIX - 0 ft / 0 m 54.70750˚ -2.77472˚ 62 nm 88 nm 338° / 338° -
O EGPF APT - 0 ft / 0 m 55.87222˚ -4.44472˚ 90 nm 178 nm 321° / 320° -

Altitude Profile

Advertisement - Login to hide

Weather


0- 5 10 15 20 25 30 35+ Temperature / ° C

Clouds and Precipitation
Forecast for 2018-05-22 18:00 UTC. Updated 4 hours ago

Ground ~20,000 ft ~40,000 ft Winds

EGCC

Details ICAO EGCC (MAN)
Name Manchester Intl
Region United Kingdom
Timezone Europe/London (UTC+1.0)
Stats Elevation 257 ft / 78 m (AMSL)
Location 53.347141° -2.283954°
Runways 2
Magnetic Variation 1.393° W

METAR

EGCC 222050Z AUTO 06007KT 9999 NCD 12/08 Q1023 NOSIG

Decode

TAF

TAF EGCC 221702Z 2218/2324 05007KT 9999 FEW030 PROB30 2220/2307 7000

Decode

Departure Runways

ID Width Length Bearing (true) Bearing (mag) Surface Threshold Offset Overrun Length
05L 151 ft / 46 m 9,981 ft / 3,042 m 50.99° 52.38° Asphalt 1,401 ft / 427 m 0 ft / 0 m
05R 151 ft / 46 m 9,952 ft / 3,033 m 50.97° 52.36° Asphalt 0 ft / 0 m 26 ft / 8 m
23L 151 ft / 46 m 9,952 ft / 3,033 m 231.00° 232.39° Asphalt 561 ft / 171 m 0 ft / 0 m
23R 151 ft / 46 m 9,981 ft / 3,042 m 231.02° 232.41° Asphalt 597 ft / 182 m 0 ft / 0 m

EGPF

Details ICAO EGPF (GLA)
Name Glasgow
Region United Kingdom
Timezone Europe/London (UTC+1.0)
Stats Elevation 26 ft / 8 m (AMSL)
Location 55.871728° -4.433648°
Runways 1
Magnetic Variation 2.657° W

METAR

EGPF 222120Z AUTO 06010KT 9999 OVC024 11/07 Q1026

Decode

TAF

TAF EGPF 221658Z 2218/2318 08009KT 9999 SCT020 PROB40 TEMPO 2223/2307 8000 BKN014

Decode

Destination Runways

ID Width Length Bearing (true) Bearing (mag) Surface Threshold Offset Overrun Length
05 151 ft / 46 m 8,721 ft / 2,658 m 46.34° 49.00° Asphalt 0 ft / 0 m 499 ft / 152 m
23 151 ft / 46 m 8,721 ft / 2,658 m 226.37° 229.03° Asphalt 1,004 ft / 306 m 0 ft / 0 m

Approach Navaids

Runway Type Ident Frequency Range Bearing (true) Bearing (mag) Slope Elevation
05 Localiser IUU 110.10 MHz 18 nm / 33 km 46.37° 49.03° - 26 ft / 8 m (AMSL)
05 Glidescope IUU 110.10 MHz 10 nm / 19 km 46.36° 49.01° 3.00° 52 ft / 16 m (AMSL)
05 DME IUU 110.10 MHz 18 nm / 33 km - - - 25 ft / 8 m (AMSL)
23 Localiser IOO 110.10 MHz 18 nm / 33 km 226.33° 228.99° - 26 ft / 8 m (AMSL)
23 Glidescope IOO 110.10 MHz 10 nm / 19 km 226.36° 229.01° 3.00° 50 ft / 15 m (AMSL)
23 DME IOO 110.10 MHz 18 nm / 33 km - - - 25 ft / 8 m (AMSL)

Popular Alternatives